Disclaimer

Please do not use the information listed here in-flight or in-navigation, as they are not provided to us by the airports but are provided by volunteers, so they might be outdated.

Search


Regions


Airport information page

Radio informations:
OPS - 130.65 MHz
Ground (GND) - 121.775 MHz
Approach (APP) - 128.85 MHz

Airport informations:
Latitude: 50° 57' 00.94" N
Longitude: 001° 21' 24.49" W
Elevation: 44 feet - 13 meters
Operating hours: Remarks
Operating agency: Civil government, landing fees and diplomatic clearance may be required
Timezone: UTC 0(+1DT) - Last Sunday in March to last Sunday in October
Fuel: Jet A1, without icing nhibitor.

100/130 MIL Spec, low lead, aviation gasoline (BLUE)

Runway information:
02/20 - 5653 x 121 feet< - >1723 x 37 meters

Recent METARs:
EGHI 211650Z 10006KT 070V130 9999 FEW025 05/02 Q1014
EGHI 211720Z 09004KT 9999 FEW025 SCT046 05/02 Q1015
EGHI 211750Z 09004KT 060V120 9999 FEW025 04/01 Q1015

Airport on the map: